Terminal Aerodrome Forecast
Issued by NWS

Home | Current Version | Previous Version | Text Only | Print | Product List | Glossary On
Versions: 1 2 3 4 5 6 7 8 9 10 11 12 13 14 15 16 17 18
000
FTAK31 PAJN 211700
TAFAWG
TAF
PAWG 211729Z 2118/2218 16008KT P6SM -RA SCT030 OVC060
     FM212000 11013G21KT P6SM -RA SCT020 OVC050
     FM212200 11020G35KT P6SM -RA SCT025 BKN050
     FM220300 11015G25KT P6SM -RA OVC050
     FM220700 11013G23KT P6SM -SHRA OVC050
      AMD LTD TO CLD VIS AND WIND 2206/2215=

USA.gov is the U.S. government's official web portal to all federal, state and local government web resources and services.